createdAt,value
2017-06-27T00:01:50.750Z,16.90
2017-06-27T00:04:18.309Z,16.90
2017-06-27T00:06:45.838Z,16.90
2017-06-27T00:09:14.172Z,16.80
2017-06-27T00:11:41.704Z,16.80
2017-06-27T00:14:09.264Z,16.70
2017-06-27T00:16:36.795Z,16.70
2017-06-27T00:19:04.373Z,16.70
2017-06-27T00:21:31.906Z,16.80
2017-06-27T00:24:00.264Z,16.90
2017-06-27T00:26:27.842Z,16.90
2017-06-27T00:28:56.151Z,16.90
2017-06-27T00:31:23.714Z,16.90
2017-06-27T00:33:51.254Z,16.90
2017-06-27T00:36:18.823Z,16.90
2017-06-27T00:38:46.353Z,17.00
2017-06-27T00:41:14.734Z,16.90
2017-06-27T00:43:43.032Z,16.90
2017-06-27T00:46:10.561Z,16.90
2017-06-27T00:48:38.901Z,17.00
2017-06-27T00:51:06.435Z,17.00
2017-06-27T00:53:34.002Z,17.00
2017-06-27T00:56:01.537Z,17.00
2017-06-27T00:58:29.098Z,16.90
2017-06-27T01:00:56.629Z,16.90
2017-06-27T01:03:24.972Z,16.80
2017-06-27T01:05:52.514Z,16.80
2017-06-27T01:08:20.058Z,16.70
2017-06-27T01:10:47.621Z,16.70
2017-06-27T01:13:15.162Z,16.70
2017-06-27T01:15:42.729Z,16.50
2017-06-27T01:18:10.262Z,16.50
2017-06-27T01:20:37.842Z,16.40
2017-06-27T01:23:05.406Z,16.30
2017-06-27T01:25:32.946Z,16.30
2017-06-27T01:28:00.513Z,16.40
2017-06-27T01:30:28.054Z,16.40
2017-06-27T01:32:56.402Z,16.30
2017-06-27T01:35:23.930Z,16.30
2017-06-27T01:37:51.479Z,16.30
2017-06-27T01:40:19.062Z,16.20
2017-06-27T01:42:46.598Z,16.10
2017-06-27T01:45:14.131Z,16.10
2017-06-27T01:47:41.702Z,16.20
2017-06-27T01:50:09.265Z,16.20
2017-06-27T01:52:36.835Z,16.20
2017-06-27T01:55:04.377Z,16.10
2017-06-27T01:57:32.267Z,16.10
2017-06-27T01:59:59.829Z,16.10
2017-06-27T02:02:27.358Z,16.10
2017-06-27T02:04:55.097Z,16.00
2017-06-27T02:07:22.641Z,16.00
2017-06-27T02:09:50.211Z,16.00
2017-06-27T02:12:18.516Z,16.10
2017-06-27T02:14:46.078Z,16.00
2017-06-27T02:17:13.610Z,16.10
2017-06-27T02:19:41.958Z,16.00
2017-06-27T02:22:09.491Z,16.00
2017-06-27T02:24:37.031Z,16.00
2017-06-27T02:27:04.598Z,16.10
2017-06-27T02:29:32.138Z,16.10
2017-06-27T02:31:59.709Z,16.10
2017-06-27T02:34:27.242Z,16.00
2017-06-27T02:36:54.814Z,16.00
2017-06-27T02:39:22.346Z,16.00
2017-06-27T02:41:50.679Z,16.10
2017-06-27T02:44:18.217Z,16.10
2017-06-27T02:46:45.793Z,16.10
2017-06-27T02:49:13.341Z,16.20
2017-06-27T02:51:40.913Z,16.30
2017-06-27T02:54:08.464Z,16.30
2017-06-27T02:56:35.996Z,16.30
2017-06-27T02:59:03.569Z,16.30
2017-06-27T03:01:31.106Z,16.20
2017-06-27T03:03:59.441Z,16.30
2017-06-27T03:06:26.975Z,16.30
2017-06-27T03:08:54.537Z,16.30
2017-06-27T03:11:22.077Z,16.30
2017-06-27T03:13:49.636Z,16.30
2017-06-27T03:16:17.175Z,16.40
2017-06-27T03:18:45.509Z,16.50
2017-06-27T03:21:13.038Z,16.50
2017-06-27T03:23:40.573Z,16.50
2017-06-27T03:26:08.152Z,16.50
2017-06-27T03:28:35.689Z,16.50
2017-06-27T03:31:03.225Z,16.30
2017-06-27T03:33:30.790Z,16.30
2017-06-27T03:35:59.088Z,16.30
2017-06-27T03:38:26.664Z,16.30
2017-06-27T03:40:54.226Z,16.30
2017-06-27T03:43:21.757Z,16.20
2017-06-27T03:45:50.121Z,16.20
2017-06-27T03:48:18.425Z,16.30
2017-06-27T03:50:45.988Z,16.30
2017-06-27T03:53:13.521Z,16.20
2017-06-27T03:55:41.846Z,16.20
2017-06-27T03:58:09.376Z,16.20
2017-06-27T04:00:36.934Z,16.20
2017-06-27T04:03:04.492Z,16.30
2017-06-27T04:05:32.765Z,16.30
2017-06-27T04:08:00.329Z,16.40
2017-06-27T04:10:27.875Z,16.40
2017-06-27T04:12:55.441Z,16.30
2017-06-27T04:15:22.977Z,16.40
2017-06-27T04:17:51.303Z,16.30
2017-06-27T04:20:18.881Z,16.30
2017-06-27T04:22:46.413Z,16.30
2017-06-27T04:25:13.954Z,16.30
2017-06-27T04:27:41.526Z,16.30
2017-06-27T04:30:09.062Z,16.30
2017-06-27T04:32:36.635Z,16.30
2017-06-27T04:35:04.170Z,16.30
2017-06-27T04:37:33.079Z,16.30
2017-06-27T04:40:00.613Z,16.30
2017-06-27T04:42:29.635Z,16.30
2017-06-27T04:44:57.618Z,16.30
2017-06-27T04:47:25.160Z,16.30
2017-06-27T04:49:52.721Z,16.30
2017-06-27T04:52:20.258Z,16.30
2017-06-27T04:54:48.593Z,16.40
2017-06-27T04:57:16.127Z,16.40
2017-06-27T04:59:43.734Z,16.40
2017-06-27T05:02:12.045Z,16.50
2017-06-27T05:04:39.615Z,16.50
2017-06-27T05:07:07.156Z,16.60
2017-06-27T05:09:34.741Z,16.70
2017-06-27T05:12:02.284Z,16.70
2017-06-27T05:14:29.820Z,16.80
2017-06-27T05:16:59.051Z,16.80
2017-06-27T05:19:26.593Z,16.80
2017-06-27T05:21:54.586Z,16.90
2017-06-27T05:24:22.132Z,17.00
2017-06-27T05:26:49.706Z,17.00
2017-06-27T05:29:17.303Z,17.10
2017-06-27T05:31:45.321Z,17.20
2017-06-27T05:34:12.855Z,17.20
2017-06-27T05:36:41.172Z,17.30
2017-06-27T05:39:08.711Z,17.30
2017-06-27T05:41:36.280Z,17.40
2017-06-27T05:44:03.810Z,17.60
2017-06-27T05:46:31.348Z,17.60
2017-06-27T05:48:59.681Z,17.80
2017-06-27T05:51:27.221Z,17.80
2017-06-27T05:53:54.786Z,17.90
2017-06-27T05:56:22.323Z,17.90
2017-06-27T05:58:49.912Z,17.90
2017-06-27T06:01:17.452Z,17.70
2017-06-27T06:03:44.989Z,17.60
2017-06-27T06:06:12.553Z,17.80
2017-06-27T06:08:40.129Z,17.80
2017-06-27T06:11:07.665Z,17.70
2017-06-27T06:13:35.247Z,17.80
2017-06-27T06:16:02.784Z,17.90
2017-06-27T06:18:30.321Z,17.90
2017-06-27T06:20:58.673Z,17.90
2017-06-27T06:23:26.210Z,17.90
2017-06-27T06:25:53.741Z,18.00
2017-06-27T06:28:21.323Z,18.00
2017-06-27T06:30:49.983Z,18.00
2017-06-27T06:33:17.528Z,17.90
2017-06-27T06:35:45.090Z,18.00
2017-06-27T06:38:12.631Z,18.00
2017-06-27T06:40:41.009Z,18.00
2017-06-27T06:43:08.594Z,17.90
2017-06-27T06:45:36.136Z,17.80
2017-06-27T06:48:04.473Z,17.80
2017-06-27T06:50:32.001Z,17.80
2017-06-27T06:52:59.569Z,17.80
2017-06-27T06:55:27.105Z,17.70
2017-06-27T06:57:54.683Z,17.70
2017-06-27T07:00:22.274Z,17.60
2017-06-27T07:02:49.861Z,17.50
2017-06-27T07:05:18.212Z,17.70
2017-06-27T07:07:45.757Z,17.70
2017-06-27T07:10:13.334Z,17.90
2017-06-27T07:12:40.869Z,18.10
2017-06-27T07:15:08.401Z,18.10
2017-06-27T07:17:35.981Z,18.10
2017-06-27T07:20:03.525Z,18.10
2017-06-27T07:22:31.835Z,18.00
2017-06-27T07:24:59.372Z,17.90
2017-06-27T07:27:26.942Z,17.80
2017-06-27T07:29:54.482Z,17.70
2017-06-27T07:32:22.050Z,17.60
2017-06-27T07:34:49.590Z,17.70
2017-06-27T07:37:17.167Z,17.60
2017-06-27T07:39:44.710Z,17.90
2017-06-27T07:42:12.246Z,17.90
2017-06-27T07:44:39.823Z,18.00
2017-06-27T07:47:07.361Z,18.00
2017-06-27T07:49:36.208Z,18.10
2017-06-27T07:52:03.782Z,18.10
2017-06-27T07:54:31.328Z,18.20
2017-06-27T07:57:00.180Z,18.10
2017-06-27T07:59:30.684Z,18.10
2017-06-27T08:02:03.246Z,18.10
2017-06-27T08:04:31.556Z,17.80
2017-06-27T08:06:59.102Z,17.80
2017-06-27T08:09:26.682Z,18.10
2017-06-27T08:11:54.214Z,18.00
2017-06-27T08:14:21.754Z,18.10
2017-06-27T08:16:50.085Z,18.00
2017-06-27T08:19:17.625Z,18.00
2017-06-27T08:21:45.218Z,18.10
2017-06-27T08:24:12.759Z,18.10
2017-06-27T08:26:40.289Z,18.30
2017-06-27T08:29:08.540Z,18.50
2017-06-27T08:31:37.350Z,18.70
2017-06-27T08:34:04.914Z,18.70
2017-06-27T08:36:32.469Z,18.60
2017-06-27T08:39:00.066Z,18.70
2017-06-27T08:41:27.601Z,18.80
2017-06-27T08:43:55.186Z,18.90
2017-06-27T08:46:22.724Z,19.00
2017-06-27T08:48:50.262Z,19.10
2017-06-27T08:51:17.857Z,19.10
2017-06-27T08:53:45.403Z,19.10
2017-06-27T08:56:12.960Z,19.10
2017-06-27T08:58:40.533Z,18.90
2017-06-27T09:01:08.074Z,18.90
2017-06-27T09:03:35.650Z,18.80
2017-06-27T09:06:03.185Z,18.90
2017-06-27T09:08:30.717Z,19.00
2017-06-27T09:10:59.907Z,19.10
2017-06-27T09:13:31.101Z,19.00
2017-06-27T09:16:01.561Z,19.00
2017-06-27T09:18:29.495Z,19.10
2017-06-27T09:20:57.037Z,19.00
2017-06-27T09:23:24.614Z,19.00
2017-06-27T09:25:52.196Z,19.10
2017-06-27T09:28:19.749Z,19.20
2017-06-27T09:30:47.289Z,19.30
2017-06-27T09:33:14.861Z,19.30
2017-06-27T09:35:42.414Z,19.30
2017-06-27T09:38:09.999Z,19.40
2017-06-27T09:40:37.566Z,19.40
2017-06-27T09:43:05.107Z,19.50
2017-06-27T09:45:32.667Z,19.40
2017-06-27T09:48:00.210Z,19.50
2017-06-27T09:50:27.776Z,19.70
2017-06-27T09:52:55.324Z,19.50
2017-06-27T09:55:22.898Z,19.50
2017-06-27T09:57:50.442Z,19.70
2017-06-27T10:00:18.055Z,19.70
2017-06-27T10:02:45.586Z,19.80
2017-06-27T10:05:16.005Z,19.40
2017-06-27T10:07:44.782Z,19.30
2017-06-27T10:10:12.328Z,19.20
2017-06-27T10:12:39.915Z,19.30
2017-06-27T10:15:07.483Z,19.40
2017-06-27T10:17:35.028Z,19.30
2017-06-27T10:20:02.619Z,19.50
2017-06-27T10:22:30.925Z,19.60
2017-06-27T10:24:58.465Z,19.60
2017-06-27T10:27:26.047Z,19.60
2017-06-27T10:29:53.621Z,19.40
2017-06-27T10:32:21.195Z,19.30
2017-06-27T10:34:48.762Z,19.50
2017-06-27T10:37:17.175Z,19.80
2017-06-27T10:39:44.791Z,20.00
2017-06-27T10:42:12.336Z,20.00
2017-06-27T10:44:40.641Z,20.10
2017-06-27T10:47:08.185Z,20.00
2017-06-27T10:49:35.754Z,20.00
2017-06-27T10:52:03.296Z,20.10
2017-06-27T10:54:31.456Z,20.10
2017-06-27T10:56:58.999Z,20.20
2017-06-27T10:59:26.572Z,20.40
2017-06-27T11:01:54.116Z,20.50
2017-06-27T11:04:21.675Z,20.50
2017-06-27T11:06:49.210Z,20.60
2017-06-27T11:09:16.789Z,20.40
2017-06-27T11:11:44.329Z,20.30
2017-06-27T11:14:11.860Z,20.30
2017-06-27T11:16:39.428Z,20.40
2017-06-27T11:19:07.742Z,20.60
2017-06-27T11:21:35.334Z,20.60
2017-06-27T11:24:02.877Z,20.70
2017-06-27T11:26:30.405Z,20.90
2017-06-27T11:28:57.973Z,20.70
2017-06-27T11:31:26.510Z,20.60
2017-06-27T11:33:55.925Z,20.10
2017-06-27T11:36:24.225Z,19.70
2017-06-27T11:38:51.756Z,19.70
2017-06-27T11:41:20.149Z,19.70
2017-06-27T11:43:47.690Z,19.70
2017-06-27T11:46:15.991Z,19.60
2017-06-27T11:48:43.563Z,19.60
2017-06-27T11:51:11.097Z,19.70
2017-06-27T11:53:38.721Z,19.60
2017-06-27T11:56:06.255Z,19.50
2017-06-27T11:58:33.790Z,19.50
2017-06-27T12:01:13.150Z,19.40
2017-06-27T12:03:52.834Z,19.30
2017-06-27T12:06:20.417Z,19.30
2017-06-27T12:08:57.828Z,19.30
2017-06-27T12:11:25.422Z,19.20
2017-06-27T12:13:53.010Z,19.40
2017-06-27T12:16:21.322Z,19.20
2017-06-27T12:18:48.870Z,19.20
2017-06-27T12:21:16.461Z,19.10
2017-06-27T12:23:48.058Z,19.00
2017-06-27T12:26:17.137Z,19.00
2017-06-27T12:28:44.694Z,19.00
2017-06-27T12:31:12.233Z,19.10
2017-06-27T12:33:39.821Z,19.20
2017-06-27T12:36:08.134Z,19.30
2017-06-27T12:38:35.670Z,19.30
2017-06-27T12:41:04.039Z,19.20
2017-06-27T12:43:32.342Z,19.20
2017-06-27T12:45:59.885Z,19.20
2017-06-27T12:48:28.220Z,19.40
2017-06-27T12:50:55.750Z,19.40
2017-06-27T12:53:23.282Z,19.40
2017-06-27T12:55:50.889Z,19.40
2017-06-27T12:58:18.426Z,19.40
2017-06-27T13:00:45.962Z,19.40
2017-06-27T13:03:13.644Z,19.30
2017-06-27T13:05:42.029Z,19.30
2017-06-27T13:08:09.563Z,19.50
2017-06-27T13:10:37.785Z,19.40
2017-06-27T13:13:05.326Z,19.50
2017-06-27T13:15:32.862Z,19.30
2017-06-27T13:18:00.443Z,19.20
2017-06-27T13:20:28.017Z,19.20
2017-06-27T13:22:55.632Z,19.30
2017-06-27T13:25:23.181Z,19.40
2017-06-27T13:27:50.758Z,19.60
2017-06-27T13:30:18.304Z,19.80
2017-06-27T13:32:45.882Z,19.90
2017-06-27T13:35:13.431Z,19.80
2017-06-27T13:37:41.018Z,19.80
2017-06-27T13:40:08.563Z,19.80
2017-06-27T13:42:36.106Z,20.00
2017-06-27T13:45:03.682Z,20.20
2017-06-27T13:47:31.223Z,20.20
2017-06-27T13:49:58.794Z,20.10
2017-06-27T13:52:26.782Z,20.10
2017-06-27T13:54:54.324Z,20.20
2017-06-27T13:57:21.873Z,20.10
2017-06-27T13:59:49.462Z,20.20
2017-06-27T14:02:17.009Z,20.20
2017-06-27T14:04:44.554Z,20.10
2017-06-27T14:07:12.156Z,20.20
2017-06-27T14:09:39.713Z,20.30
2017-06-27T14:12:07.263Z,20.40
2017-06-27T14:14:34.849Z,20.30
2017-06-27T14:17:03.174Z,20.50
2017-06-27T14:19:30.722Z,20.50
2017-06-27T14:21:58.308Z,20.50
2017-06-27T14:24:25.848Z,20.40
2017-06-27T14:26:53.400Z,20.40
2017-06-27T14:29:21.460Z,20.40
2017-06-27T14:31:49.638Z,20.50
2017-06-27T14:34:17.621Z,20.60
2017-06-27T14:36:45.590Z,20.70
2017-06-27T14:39:15.061Z,20.70
2017-06-27T14:41:42.606Z,20.90
2017-06-27T14:44:10.950Z,21.80
2017-06-27T14:46:38.486Z,21.70
2017-06-27T14:49:06.026Z,21.90
2017-06-27T14:51:33.730Z,22.10
2017-06-27T14:54:01.274Z,22.30
2017-06-27T14:56:28.806Z,22.40
2017-06-27T14:58:56.423Z,22.50
2017-06-27T15:01:24.227Z,22.40
2017-06-27T15:03:54.075Z,22.30
2017-06-27T15:06:22.068Z,22.20
2017-06-27T15:08:51.036Z,22.20
2017-06-27T15:11:21.956Z,22.30
2017-06-27T15:13:51.385Z,22.30
2017-06-27T15:16:23.527Z,22.50
2017-06-27T15:18:53.379Z,22.50
2017-06-27T15:21:23.148Z,22.50
2017-06-27T15:23:55.863Z,22.50
2017-06-27T15:31:44.517Z,22.50
2017-06-27T15:34:16.264Z,22.60
2017-06-27T15:36:44.750Z,22.60
2017-06-27T15:39:13.718Z,22.60
2017-06-27T15:41:42.051Z,22.50
2017-06-27T15:44:10.334Z,22.60
2017-06-27T15:46:37.873Z,22.60
2017-06-27T15:49:05.498Z,22.40
2017-06-27T15:51:33.828Z,22.50
2017-06-27T15:54:02.777Z,22.50
2017-06-27T15:56:31.802Z,22.30
2017-06-27T15:59:00.121Z,22.30
2017-06-27T16:01:28.318Z,22.40
2017-06-27T16:03:56.093Z,22.40
2017-06-27T16:06:23.691Z,22.40
2017-06-27T16:08:52.126Z,22.30
2017-06-27T16:11:19.714Z,22.20
2017-06-27T16:13:47.262Z,22.30
2017-06-27T16:16:15.057Z,22.20
2017-06-27T16:18:43.365Z,22.20
2017-06-27T16:21:10.933Z,22.20
2017-06-27T16:23:38.472Z,22.20
2017-06-27T16:26:06.037Z,22.20
2017-06-27T16:28:33.608Z,22.20
2017-06-27T16:31:01.132Z,22.20
2017-06-27T16:33:29.473Z,22.10
2017-06-27T16:35:57.001Z,22.20
2017-06-27T16:38:24.597Z,22.20
2017-06-27T16:40:52.890Z,22.20
2017-06-27T16:43:21.005Z,22.20
2017-06-27T16:45:48.590Z,22.20
2017-06-27T16:48:16.131Z,22.20
2017-06-27T16:50:43.703Z,22.20
2017-06-27T16:53:11.238Z,22.20
2017-06-27T16:55:38.822Z,22.00
2017-06-27T16:58:06.357Z,22.00
2017-06-27T17:00:33.918Z,21.90
2017-06-27T17:03:01.489Z,22.00
2017-06-27T17:05:29.027Z,21.90
2017-06-27T17:07:56.605Z,22.00
2017-06-27T17:10:24.145Z,21.90
2017-06-27T17:12:51.711Z,21.70
2017-06-27T17:15:19.251Z,21.70
2017-06-27T17:17:46.812Z,21.70
2017-06-27T17:20:14.348Z,21.80
2017-06-27T17:22:41.942Z,21.70
2017-06-27T17:25:09.478Z,21.80
2017-06-27T17:27:37.773Z,21.80
2017-06-27T17:30:05.345Z,21.80
2017-06-27T17:32:32.879Z,21.80
2017-06-27T17:35:00.509Z,21.70
2017-06-27T17:37:28.989Z,21.90
2017-06-27T17:39:56.576Z,21.90
2017-06-27T17:42:24.116Z,21.90
2017-06-27T17:44:52.458Z,21.90
2017-06-27T17:47:19.995Z,21.90
2017-06-27T17:49:49.314Z,21.80
2017-06-27T17:52:16.894Z,21.90
2017-06-27T17:54:44.435Z,21.90
2017-06-27T17:57:14.998Z,21.90
2017-06-27T17:59:43.312Z,21.80
2017-06-27T18:02:10.894Z,21.80
2017-06-27T18:04:38.446Z,21.80
2017-06-27T18:07:05.990Z,21.90
2017-06-27T18:09:33.873Z,21.90
2017-06-27T18:12:01.443Z,21.90
2017-06-27T18:14:29.012Z,22.00
2017-06-27T18:16:56.562Z,21.80
2017-06-27T18:19:24.099Z,21.70
2017-06-27T18:21:51.694Z,21.70
2017-06-27T18:24:19.244Z,21.80
2017-06-27T18:26:46.818Z,21.70
2017-06-27T18:29:14.388Z,21.70
2017-06-27T18:31:42.743Z,21.60
2017-06-27T18:34:10.392Z,21.60
2017-06-27T18:36:39.163Z,21.70
2017-06-27T18:39:07.566Z,21.80
2017-06-27T18:41:39.572Z,21.80
2017-06-27T18:44:08.543Z,21.90
2017-06-27T18:46:36.861Z,21.70
2017-06-27T18:49:04.453Z,21.70
2017-06-27T18:51:31.997Z,21.60
2017-06-27T18:53:59.573Z,21.60
2017-06-27T18:56:27.117Z,21.70
2017-06-27T18:58:54.681Z,21.60
2017-06-27T19:01:22.784Z,21.50
2017-06-27T19:03:52.643Z,21.40
2017-06-27T19:06:20.269Z,21.40
2017-06-27T19:08:48.609Z,21.40
2017-06-27T19:11:16.149Z,21.40
2017-06-27T19:13:43.781Z,21.40
2017-06-27T19:16:11.321Z,21.40
2017-06-27T19:18:39.676Z,21.30
2017-06-27T19:21:07.249Z,21.30
2017-06-27T19:23:35.590Z,21.30
2017-06-27T19:26:03.146Z,21.30
2017-06-27T19:28:30.726Z,21.30
2017-06-27T19:30:58.330Z,21.30
2017-06-27T19:33:25.862Z,21.20
2017-06-27T19:35:54.252Z,21.20
2017-06-27T19:38:21.834Z,21.20
2017-06-27T19:40:49.427Z,21.20
2017-06-27T19:43:16.994Z,21.20
2017-06-27T19:45:44.853Z,21.20
2017-06-27T19:48:15.656Z,21.20
2017-06-27T19:50:45.576Z,21.20
2017-06-27T19:53:13.259Z,21.10
2017-06-27T19:55:40.886Z,21.10
2017-06-27T19:58:08.474Z,21.00
2017-06-27T20:00:36.017Z,21.00
2017-06-27T20:03:03.646Z,20.90
2017-06-27T20:05:32.095Z,20.90
2017-06-27T20:08:00.458Z,20.90
2017-06-27T20:10:28.771Z,20.90
2017-06-27T20:12:56.349Z,20.90
2017-06-27T20:15:24.849Z,20.90
2017-06-27T20:17:54.743Z,20.90
2017-06-27T20:20:23.052Z,20.90
2017-06-27T20:22:50.664Z,20.80
2017-06-27T20:25:19.080Z,20.80
2017-06-27T20:27:46.616Z,20.80
2017-06-27T20:30:17.618Z,20.80
2017-06-27T20:32:45.238Z,20.80
2017-06-27T20:35:14.092Z,20.80
2017-06-27T20:37:41.634Z,20.80
2017-06-27T20:40:09.997Z,20.70
2017-06-27T20:42:37.623Z,20.70
2017-06-27T20:45:05.152Z,20.70
2017-06-27T20:47:32.722Z,20.60
2017-06-27T20:50:01.131Z,20.70
2017-06-27T20:52:28.680Z,20.70
2017-06-27T20:54:56.843Z,20.70
2017-06-27T20:57:24.406Z,20.70
2017-06-27T20:59:52.099Z,20.60
2017-06-27T21:02:19.637Z,20.60
2017-06-27T21:04:47.218Z,20.70
2017-06-27T21:07:14.765Z,20.60
2017-06-27T21:09:42.294Z,20.60
2017-06-27T21:12:09.860Z,20.60
2017-06-27T21:14:37.397Z,20.60
2017-06-27T21:17:04.992Z,20.60
2017-06-27T21:19:33.077Z,20.70
2017-06-27T21:22:00.646Z,20.60
2017-06-27T21:24:28.185Z,20.60
2017-06-27T21:26:56.569Z,20.50
2017-06-27T21:29:24.104Z,20.40
2017-06-27T21:31:51.637Z,20.30
2017-06-27T21:34:20.961Z,20.20
2017-06-27T21:36:48.489Z,20.20
2017-06-27T21:39:16.177Z,20.30
2017-06-27T21:41:43.755Z,20.20
2017-06-27T21:44:11.769Z,20.10
2017-06-27T21:46:40.094Z,19.90
2017-06-27T21:49:07.634Z,19.90
2017-06-27T21:51:35.334Z,19.90
2017-06-27T21:54:03.042Z,19.80
2017-06-27T21:56:30.574Z,19.80
2017-06-27T21:58:59.754Z,19.70
2017-06-27T22:01:27.289Z,19.60
2017-06-27T22:03:55.667Z,19.60
2017-06-27T22:06:23.196Z,19.60
2017-06-27T22:08:50.767Z,19.60
2017-06-27T22:11:19.090Z,19.60
2017-06-27T22:13:46.674Z,19.50
2017-06-27T22:16:19.326Z,19.60
2017-06-27T22:18:47.820Z,19.60
2017-06-27T22:21:20.245Z,19.60
2017-06-27T22:23:47.821Z,19.60
2017-06-27T22:26:15.849Z,19.60
2017-06-27T22:28:46.066Z,19.70
2017-06-27T22:31:13.636Z,19.70
2017-06-27T22:33:41.165Z,19.70
2017-06-27T22:36:08.729Z,19.60
2017-06-27T22:38:37.027Z,19.60
2017-06-27T22:41:04.624Z,19.50
2017-06-27T22:43:32.198Z,19.50
2017-06-27T22:46:02.417Z,19.50
2017-06-27T22:48:29.981Z,19.40
2017-06-27T22:50:57.518Z,19.50
2017-06-27T22:53:25.094Z,19.50
2017-06-27T22:55:54.055Z,19.50
2017-06-27T22:58:21.638Z,19.50
2017-06-27T23:00:49.177Z,19.50
2017-06-27T23:03:16.752Z,19.50
2017-06-27T23:05:44.281Z,19.50
2017-06-27T23:08:11.805Z,19.50
2017-06-27T23:10:39.376Z,19.50
2017-06-27T23:13:06.913Z,19.40
2017-06-27T23:15:34.480Z,19.40
2017-06-27T23:18:02.013Z,19.30
2017-06-27T23:20:29.585Z,19.30
2017-06-27T23:22:57.886Z,19.30
2017-06-27T23:25:25.473Z,19.30
2017-06-27T23:27:53.013Z,19.30
2017-06-27T23:30:20.549Z,19.20
2017-06-27T23:32:48.878Z,19.30
2017-06-27T23:35:16.408Z,19.30
2017-06-27T23:37:43.968Z,19.30
2017-06-27T23:40:11.517Z,19.50
2017-06-27T23:42:39.086Z,19.40
2017-06-27T23:45:06.654Z,19.30
2017-06-27T23:47:34.221Z,19.20
2017-06-27T23:50:01.749Z,19.30
2017-06-27T23:52:29.289Z,19.30
2017-06-27T23:54:56.862Z,19.40
2017-06-27T23:57:24.426Z,19.30
2017-06-27T23:59:51.987Z,19.10
